sensor_id;sensor_type;location;lat;lon;timestamp;temperature;humidity
29363;DHT22;16349;53.672;10.014;2022-11-20T00:01:34;2.00;99.90
29363;DHT22;16349;53.672;10.014;2022-11-20T00:04:01;2.00;99.90
29363;DHT22;16349;53.672;10.014;2022-11-20T00:06:29;2.10;99.90
29363;DHT22;16349;53.672;10.014;2022-11-20T00:08:58;2.10;99.90
29363;DHT22;16349;53.672;10.014;2022-11-20T00:11:27;2.10;99.90
29363;DHT22;16349;53.672;10.014;2022-11-20T00:13:56;2.00;99.90
29363;DHT22;16349;53.672;10.014;2022-11-20T00:16:25;2.10;99.90
29363;DHT22;16349;53.672;10.014;2022-11-20T00:18:52;2.10;99.90
29363;DHT22;16349;53.672;10.014;2022-11-20T00:21:21;2.10;99.90
29363;DHT22;16349;53.672;10.014;2022-11-20T00:23:48;2.10;99.90
29363;DHT22;16349;53.672;10.014;2022-11-20T00:26:16;2.10;99.90
29363;DHT22;16349;53.672;10.014;2022-11-20T00:28:49;2.10;99.90
29363;DHT22;16349;53.672;10.014;2022-11-20T00:31:18;2.10;99.90
29363;DHT22;16349;53.672;10.014;2022-11-20T00:33:45;2.10;99.90
29363;DHT22;16349;53.672;10.014;2022-11-20T00:36:14;2.10;99.90
29363;DHT22;16349;53.672;10.014;2022-11-20T00:38:41;2.10;99.90
29363;DHT22;16349;53.672;10.014;2022-11-20T00:41:10;2.10;99.90
29363;DHT22;16349;53.672;10.014;2022-11-20T00:43:38;2.10;99.90
29363;DHT22;16349;53.672;10.014;2022-11-20T00:46:08;2.10;99.90
29363;DHT22;16349;53.672;10.014;2022-11-20T00:48:36;2.10;99.90
29363;DHT22;16349;53.672;10.014;2022-11-20T00:51:02;2.10;99.90
29363;DHT22;16349;53.672;10.014;2022-11-20T00:53:30;2.00;99.90
29363;DHT22;16349;53.672;10.014;2022-11-20T00:55:59;2.00;99.90
29363;DHT22;16349;53.672;10.014;2022-11-20T00:58:29;2.00;99.90
29363;DHT22;16349;53.672;10.014;2022-11-20T01:01:00;2.10;99.90
29363;DHT22;16349;53.672;10.014;2022-11-20T01:03:30;2.10;99.90
29363;DHT22;16349;53.672;10.014;2022-11-20T01:05:59;2.10;99.90
29363;DHT22;16349;53.672;10.014;2022-11-20T01:08:29;2.10;99.90
29363;DHT22;16349;53.672;10.014;2022-11-20T01:10:59;2.10;99.90
29363;DHT22;16349;53.672;10.014;2022-11-20T01:13:26;2.10;99.90
29363;DHT22;16349;53.672;10.014;2022-11-20T01:16:06;2.10;99.90
29363;DHT22;16349;53.672;10.014;2022-11-20T01:18:36;2.10;99.90
29363;DHT22;16349;53.672;10.014;2022-11-20T01:21:06;2.00;99.90
29363;DHT22;16349;53.672;10.014;2022-11-20T01:23:34;2.00;99.90
29363;DHT22;16349;53.672;10.014;2022-11-20T01:26:02;2.10;99.90
29363;DHT22;16349;53.672;10.014;2022-11-20T01:28:30;2.10;99.90
29363;DHT22;16349;53.672;10.014;2022-11-20T01:30:56;2.10;99.90
29363;DHT22;16349;53.672;10.014;2022-11-20T01:33:23;2.10;99.90
29363;DHT22;16349;53.672;10.014;2022-11-20T01:35:53;2.10;99.90
29363;DHT22;16349;53.672;10.014;2022-11-20T01:38:19;2.10;99.90
29363;DHT22;16349;53.672;10.014;2022-11-20T01:40:54;2.00;99.90
29363;DHT22;16349;53.672;10.014;2022-11-20T01:43:22;2.00;99.90
29363;DHT22;16349;53.672;10.014;2022-11-20T01:46:08;2.00;99.90
29363;DHT22;16349;53.672;10.014;2022-11-20T01:48:44;2.00;99.90
29363;DHT22;16349;53.672;10.014;2022-11-20T01:51:21;2.00;99.90
29363;DHT22;16349;53.672;10.014;2022-11-20T01:53:50;1.90;99.90
29363;DHT22;16349;53.672;10.014;2022-11-20T01:56:18;1.90;99.90
29363;DHT22;16349;53.672;10.014;2022-11-20T01:58:50;1.90;99.90
29363;DHT22;16349;53.672;10.014;2022-11-20T02:01:18;1.80;99.90
29363;DHT22;16349;53.672;10.014;2022-11-20T02:03:46;1.90;99.90
29363;DHT22;16349;53.672;10.014;2022-11-20T02:06:21;1.90;99.90
29363;DHT22;16349;53.672;10.014;2022-11-20T02:08:50;1.90;99.90
29363;DHT22;16349;53.672;10.014;2022-11-20T02:11:18;1.90;99.90
29363;DHT22;16349;53.672;10.014;2022-11-20T02:13:45;1.90;99.90
29363;DHT22;16349;53.672;10.014;2022-11-20T02:16:14;1.90;99.90
29363;DHT22;16349;53.672;10.014;2022-11-20T02:18:43;1.90;99.90
29363;DHT22;16349;53.672;10.014;2022-11-20T02:21:19;1.90;99.90
29363;DHT22;16349;53.672;10.014;2022-11-20T02:24:00;1.90;99.90
29363;DHT22;16349;53.672;10.014;2022-11-20T02:26:30;1.90;99.90
29363;DHT22;16349;53.672;10.014;2022-11-20T02:28:58;1.90;99.90
29363;DHT22;16349;53.672;10.014;2022-11-20T02:31:25;1.80;99.90
29363;DHT22;16349;53.672;10.014;2022-11-20T02:33:55;1.90;99.90
29363;DHT22;16349;53.672;10.014;2022-11-20T02:36:23;1.80;99.90
29363;DHT22;16349;53.672;10.014;2022-11-20T02:38:51;1.80;99.90
29363;DHT22;16349;53.672;10.014;2022-11-20T02:41:19;1.80;99.90
29363;DHT22;16349;53.672;10.014;2022-11-20T02:43:46;1.80;99.90
29363;DHT22;16349;53.672;10.014;2022-11-20T02:46:13;1.80;99.90
29363;DHT22;16349;53.672;10.014;2022-11-20T02:48:40;1.80;99.90
29363;DHT22;16349;53.672;10.014;2022-11-20T02:51:07;1.80;99.90
29363;DHT22;16349;53.672;10.014;2022-11-20T02:53:33;1.80;99.90
29363;DHT22;16349;53.672;10.014;2022-11-20T02:56:00;1.90;99.90
29363;DHT22;16349;53.672;10.014;2022-11-20T02:58:28;1.90;99.90
29363;DHT22;16349;53.672;10.014;2022-11-20T03:00:55;1.90;99.90
29363;DHT22;16349;53.672;10.014;2022-11-20T03:03:22;1.90;99.90
29363;DHT22;16349;53.672;10.014;2022-11-20T03:05:49;1.90;99.90
29363;DHT22;16349;53.672;10.014;2022-11-20T03:08:16;1.90;99.90
29363;DHT22;16349;53.672;10.014;2022-11-20T03:10:43;1.90;99.90
29363;DHT22;16349;53.672;10.014;2022-11-20T03:13:10;1.90;99.90
29363;DHT22;16349;53.672;10.014;2022-11-20T03:15:38;1.80;99.90
29363;DHT22;16349;53.672;10.014;2022-11-20T03:18:05;1.90;99.90
29363;DHT22;16349;53.672;10.014;2022-11-20T03:20:32;1.80;99.90
29363;DHT22;16349;53.672;10.014;2022-11-20T03:23:00;1.80;99.90
29363;DHT22;16349;53.672;10.014;2022-11-20T03:25:27;1.80;99.90
29363;DHT22;16349;53.672;10.014;2022-11-20T03:27:54;1.80;99.90
29363;DHT22;16349;53.672;10.014;2022-11-20T03:30:21;1.80;99.90
29363;DHT22;16349;53.672;10.014;2022-11-20T03:32:52;1.80;99.90
29363;DHT22;16349;53.672;10.014;2022-11-20T03:35:20;1.80;99.90
29363;DHT22;16349;53.672;10.014;2022-11-20T03:37:47;1.80;99.90
29363;DHT22;16349;53.672;10.014;2022-11-20T03:40:14;1.80;99.90
29363;DHT22;16349;53.672;10.014;2022-11-20T03:42:41;1.90;99.90
29363;DHT22;16349;53.672;10.014;2022-11-20T03:45:14;1.80;99.90
29363;DHT22;16349;53.672;10.014;2022-11-20T03:47:42;1.80;99.90
29363;DHT22;16349;53.672;10.014;2022-11-20T03:50:12;1.80;99.90
29363;DHT22;16349;53.672;10.014;2022-11-20T03:52:39;1.80;99.90
29363;DHT22;16349;53.672;10.014;2022-11-20T03:55:07;1.80;99.90
29363;DHT22;16349;53.672;10.014;2022-11-20T03:57:34;1.80;99.90
29363;DHT22;16349;53.672;10.014;2022-11-20T04:00:01;1.80;99.90
29363;DHT22;16349;53.672;10.014;2022-11-20T04:02:30;1.80;99.90
29363;DHT22;16349;53.672;10.014;2022-11-20T04:04:56;1.80;99.90
29363;DHT22;16349;53.672;10.014;2022-11-20T04:07:25;1.80;99.90
29363;DHT22;16349;53.672;10.014;2022-11-20T04:09:51;1.80;99.90
29363;DHT22;16349;53.672;10.014;2022-11-20T04:12:18;1.90;99.90
29363;DHT22;16349;53.672;10.014;2022-11-20T04:14:45;1.90;99.90
29363;DHT22;16349;53.672;10.014;2022-11-20T04:17:12;1.80;99.90
29363;DHT22;16349;53.672;10.014;2022-11-20T04:19:39;1.80;99.90
29363;DHT22;16349;53.672;10.014;2022-11-20T04:22:05;1.80;99.90
29363;DHT22;16349;53.672;10.014;2022-11-20T04:24:34;1.80;99.90
29363;DHT22;16349;53.672;10.014;2022-11-20T04:27:00;1.80;99.90
29363;DHT22;16349;53.672;10.014;2022-11-20T04:29:27;1.80;99.90
29363;DHT22;16349;53.672;10.014;2022-11-20T04:31:54;1.80;99.90
29363;DHT22;16349;53.672;10.014;2022-11-20T04:34:21;1.80;99.90
29363;DHT22;16349;53.672;10.014;2022-11-20T04:36:48;1.80;99.90
29363;DHT22;16349;53.672;10.014;2022-11-20T04:39:15;1.70;99.90
29363;DHT22;16349;53.672;10.014;2022-11-20T04:41:43;1.80;99.90
29363;DHT22;16349;53.672;10.014;2022-11-20T04:44:11;1.80;99.90
29363;DHT22;16349;53.672;10.014;2022-11-20T04:46:39;1.80;99.90
29363;DHT22;16349;53.672;10.014;2022-11-20T04:49:07;1.80;99.90
29363;DHT22;16349;53.672;10.014;2022-11-20T04:51:34;1.80;99.90
29363;DHT22;16349;53.672;10.014;2022-11-20T04:54:02;1.80;99.90
29363;DHT22;16349;53.672;10.014;2022-11-20T04:56:29;1.80;99.90
29363;DHT22;16349;53.672;10.014;2022-11-20T04:59:00;1.70;99.90
29363;DHT22;16349;53.672;10.014;2022-11-20T05:01:27;1.70;99.90
29363;DHT22;16349;53.672;10.014;2022-11-20T05:03:53;1.80;99.90
29363;DHT22;16349;53.672;10.014;2022-11-20T05:06:21;1.70;99.90
29363;DHT22;16349;53.672;10.014;2022-11-20T05:08:48;1.70;99.90
29363;DHT22;16349;53.672;10.014;2022-11-20T05:11:18;1.70;99.90
29363;DHT22;16349;53.672;10.014;2022-11-20T05:13:45;1.70;99.90
29363;DHT22;16349;53.672;10.014;2022-11-20T05:16:15;1.80;99.90
29363;DHT22;16349;53.672;10.014;2022-11-20T05:18:43;1.70;99.90
29363;DHT22;16349;53.672;10.014;2022-11-20T05:21:13;1.70;99.90
29363;DHT22;16349;53.672;10.014;2022-11-20T05:23:40;1.70;99.90
29363;DHT22;16349;53.672;10.014;2022-11-20T05:26:12;1.70;99.90
29363;DHT22;16349;53.672;10.014;2022-11-20T05:28:39;1.70;99.90
29363;DHT22;16349;53.672;10.014;2022-11-20T05:31:06;1.70;99.90
29363;DHT22;16349;53.672;10.014;2022-11-20T05:33:35;1.70;99.90
29363;DHT22;16349;53.672;10.014;2022-11-20T05:36:03;1.70;99.90
29363;DHT22;16349;53.672;10.014;2022-11-20T05:38:30;1.70;99.90
29363;DHT22;16349;53.672;10.014;2022-11-20T05:41:03;1.70;99.90
29363;DHT22;16349;53.672;10.014;2022-11-20T05:43:32;1.70;99.90
29363;DHT22;16349;53.672;10.014;2022-11-20T05:45:59;1.70;99.90
29363;DHT22;16349;53.672;10.014;2022-11-20T05:48:26;1.70;99.90
29363;DHT22;16349;53.672;10.014;2022-11-20T05:50:56;1.70;99.90
29363;DHT22;16349;53.672;10.014;2022-11-20T05:53:22;1.60;99.90
29363;DHT22;16349;53.672;10.014;2022-11-20T05:55:56;1.60;99.90
29363;DHT22;16349;53.672;10.014;2022-11-20T05:58:23;1.60;99.90
29363;DHT22;16349;53.672;10.014;2022-11-20T06:00:50;1.70;99.90
29363;DHT22;16349;53.672;10.014;2022-11-20T06:03:17;1.60;99.90
29363;DHT22;16349;53.672;10.014;2022-11-20T06:05:44;1.60;99.90
29363;DHT22;16349;53.672;10.014;2022-11-20T06:08:14;1.60;99.90
29363;DHT22;16349;53.672;10.014;2022-11-20T06:10:40;1.60;99.90
29363;DHT22;16349;53.672;10.014;2022-11-20T06:13:07;1.60;99.90
29363;DHT22;16349;53.672;10.014;2022-11-20T06:15:34;1.50;99.90
29363;DHT22;16349;53.672;10.014;2022-11-20T06:18:01;1.50;99.90
29363;DHT22;16349;53.672;10.014;2022-11-20T06:20:28;1.50;99.90
29363;DHT22;16349;53.672;10.014;2022-11-20T06:22:55;1.50;99.90
29363;DHT22;16349;53.672;10.014;2022-11-20T06:25:24;1.50;99.90
29363;DHT22;16349;53.672;10.014;2022-11-20T06:27:51;1.50;99.90
29363;DHT22;16349;53.672;10.014;2022-11-20T06:30:18;1.50;99.90
29363;DHT22;16349;53.672;10.014;2022-11-20T06:32:45;1.40;99.90
29363;DHT22;16349;53.672;10.014;2022-11-20T06:35:12;1.40;99.90
29363;DHT22;16349;53.672;10.014;2022-11-20T06:37:38;1.40;99.90
29363;DHT22;16349;53.672;10.014;2022-11-20T06:40:06;1.40;99.90
29363;DHT22;16349;53.672;10.014;2022-11-20T06:42:35;1.40;99.90
29363;DHT22;16349;53.672;10.014;2022-11-20T06:45:03;1.40;99.90
29363;DHT22;16349;53.672;10.014;2022-11-20T06:47:29;1.40;99.90
29363;DHT22;16349;53.672;10.014;2022-11-20T06:49:56;1.40;99.90
29363;DHT22;16349;53.672;10.014;2022-11-20T06:52:23;1.40;99.90
29363;DHT22;16349;53.672;10.014;2022-11-20T06:54:50;1.40;99.90
29363;DHT22;16349;53.672;10.014;2022-11-20T06:57:17;1.40;99.90
29363;DHT22;16349;53.672;10.014;2022-11-20T06:59:45;1.40;99.90
29363;DHT22;16349;53.672;10.014;2022-11-20T07:02:12;1.40;99.90
29363;DHT22;16349;53.672;10.014;2022-11-20T07:04:39;1.40;99.90
29363;DHT22;16349;53.672;10.014;2022-11-20T07:07:06;1.40;99.90
29363;DHT22;16349;53.672;10.014;2022-11-20T07:09:32;1.40;99.90
29363;DHT22;16349;53.672;10.014;2022-11-20T07:12:00;1.40;99.90
29363;DHT22;16349;53.672;10.014;2022-11-20T07:14:27;1.40;99.90
29363;DHT22;16349;53.672;10.014;2022-11-20T07:16:56;1.40;99.90
29363;DHT22;16349;53.672;10.014;2022-11-20T07:19:22;1.50;99.90
29363;DHT22;16349;53.672;10.014;2022-11-20T07:21:49;1.40;99.90
29363;DHT22;16349;53.672;10.014;2022-11-20T07:24:16;1.50;99.90
29363;DHT22;16349;53.672;10.014;2022-11-20T07:26:46;1.50;99.90
29363;DHT22;16349;53.672;10.014;2022-11-20T07:29:12;1.50;99.90
29363;DHT22;16349;53.672;10.014;2022-11-20T07:31:39;1.50;99.90
29363;DHT22;16349;53.672;10.014;2022-11-20T07:34:08;1.50;99.90
29363;DHT22;16349;53.672;10.014;2022-11-20T07:36:35;1.60;99.90
29363;DHT22;16349;53.672;10.014;2022-11-20T07:39:02;1.60;99.90
29363;DHT22;16349;53.672;10.014;2022-11-20T07:41:29;1.60;99.90
29363;DHT22;16349;53.672;10.014;2022-11-20T07:43:56;1.60;99.90
29363;DHT22;16349;53.672;10.014;2022-11-20T07:46:24;1.60;99.90
29363;DHT22;16349;53.672;10.014;2022-11-20T07:48:50;1.70;99.90
29363;DHT22;16349;53.672;10.014;2022-11-20T07:51:19;1.70;99.90
29363;DHT22;16349;53.672;10.014;2022-11-20T07:53:45;1.70;99.90
29363;DHT22;16349;53.672;10.014;2022-11-20T07:56:12;1.70;99.90
29363;DHT22;16349;53.672;10.014;2022-11-20T07:58:39;1.70;99.90
29363;DHT22;16349;53.672;10.014;2022-11-20T08:01:07;1.70;99.90
29363;DHT22;16349;53.672;10.014;2022-11-20T08:03:35;1.70;99.90
29363;DHT22;16349;53.672;10.014;2022-11-20T08:06:04;1.70;99.90
29363;DHT22;16349;53.672;10.014;2022-11-20T08:08:32;1.70;99.90
29363;DHT22;16349;53.672;10.014;2022-11-20T08:10:59;1.70;99.90
29363;DHT22;16349;53.672;10.014;2022-11-20T08:13:40;1.70;99.90
29363;DHT22;16349;53.672;10.014;2022-11-20T08:16:25;1.80;99.90
29363;DHT22;16349;53.672;10.014;2022-11-20T08:18:52;1.80;99.90
29363;DHT22;16349;53.672;10.014;2022-11-20T08:21:18;1.80;99.90
29363;DHT22;16349;53.672;10.014;2022-11-20T08:23:50;1.80;99.90
29363;DHT22;16349;53.672;10.014;2022-11-20T08:26:17;1.70;99.90
29363;DHT22;16349;53.672;10.014;2022-11-20T08:28:43;1.70;99.90
29363;DHT22;16349;53.672;10.014;2022-11-20T08:31:10;1.70;99.90
29363;DHT22;16349;53.672;10.014;2022-11-20T08:33:37;1.70;99.90
29363;DHT22;16349;53.672;10.014;2022-11-20T08:36:05;1.70;99.90
29363;DHT22;16349;53.672;10.014;2022-11-20T08:38:32;1.70;99.90
29363;DHT22;16349;53.672;10.014;2022-11-20T08:41:02;1.70;99.90
29363;DHT22;16349;53.672;10.014;2022-11-20T08:43:47;1.70;99.90
29363;DHT22;16349;53.672;10.014;2022-11-20T08:46:14;1.70;99.90
29363;DHT22;16349;53.672;10.014;2022-11-20T08:48:41;1.70;99.90
29363;DHT22;16349;53.672;10.014;2022-11-20T08:51:08;1.60;99.90
29363;DHT22;16349;53.672;10.014;2022-11-20T08:53:35;1.60;99.90
29363;DHT22;16349;53.672;10.014;2022-11-20T08:56:03;1.60;99.90
29363;DHT22;16349;53.672;10.014;2022-11-20T08:58:30;1.60;99.90
29363;DHT22;16349;53.672;10.014;2022-11-20T09:00:57;1.60;99.90
29363;DHT22;16349;53.672;10.014;2022-11-20T09:03:24;1.70;99.90
29363;DHT22;16349;53.672;10.014;2022-11-20T09:05:56;1.60;99.90
29363;DHT22;16349;53.672;10.014;2022-11-20T09:08:24;1.60;99.90
29363;DHT22;16349;53.672;10.014;2022-11-20T09:10:51;1.70;99.90
29363;DHT22;16349;53.672;10.014;2022-11-20T09:13:19;1.70;99.90
29363;DHT22;16349;53.672;10.014;2022-11-20T09:15:46;1.60;99.90
29363;DHT22;16349;53.672;10.014;2022-11-20T09:18:13;1.70;99.90
29363;DHT22;16349;53.672;10.014;2022-11-20T09:20:40;1.80;99.90
29363;DHT22;16349;53.672;10.014;2022-11-20T09:23:07;1.80;99.90
29363;DHT22;16349;53.672;10.014;2022-11-20T09:25:34;1.80;99.90
29363;DHT22;16349;53.672;10.014;2022-11-20T09:28:01;1.80;99.90
29363;DHT22;16349;53.672;10.014;2022-11-20T09:30:29;1.90;99.90
29363;DHT22;16349;53.672;10.014;2022-11-20T09:32:58;1.90;99.90
29363;DHT22;16349;53.672;10.014;2022-11-20T09:35:25;1.90;99.90
29363;DHT22;16349;53.672;10.014;2022-11-20T09:37:52;2.00;99.90
29363;DHT22;16349;53.672;10.014;2022-11-20T09:40:20;2.00;99.90
29363;DHT22;16349;53.672;10.014;2022-11-20T09:42:54;2.00;99.90
29363;DHT22;16349;53.672;10.014;2022-11-20T09:45:34;2.00;99.90
29363;DHT22;16349;53.672;10.014;2022-11-20T09:48:36;2.10;99.90
29363;DHT22;16349;53.672;10.014;2022-11-20T09:51:20;2.10;99.90
29363;DHT22;16349;53.672;10.014;2022-11-20T09:54:00;2.10;99.90
29363;DHT22;16349;53.672;10.014;2022-11-20T09:56:33;2.10;99.90
29363;DHT22;16349;53.672;10.014;2022-11-20T09:59:05;2.10;99.90
29363;DHT22;16349;53.672;10.014;2022-11-20T10:01:35;2.10;99.90
29363;DHT22;16349;53.672;10.014;2022-11-20T10:04:09;2.10;99.90
29363;DHT22;16349;53.672;10.014;2022-11-20T10:06:41;2.10;99.90
29363;DHT22;16349;53.672;10.014;2022-11-20T10:09:18;2.10;99.90
29363;DHT22;16349;53.672;10.014;2022-11-20T10:11:54;2.10;99.90
29363;DHT22;16349;53.672;10.014;2022-11-20T10:14:29;2.10;99.90
29363;DHT22;16349;53.672;10.014;2022-11-20T10:17:03;2.20;99.90
29363;DHT22;16349;53.672;10.014;2022-11-20T10:19:45;2.20;99.90
29363;DHT22;16349;53.672;10.014;2022-11-20T10:22:26;2.30;99.90
29363;DHT22;16349;53.672;10.014;2022-11-20T10:24:56;2.30;99.90
29363;DHT22;16349;53.672;10.014;2022-11-20T10:27:40;2.30;99.90
29363;DHT22;16349;53.672;10.014;2022-11-20T10:30:14;2.30;99.90
29363;DHT22;16349;53.672;10.014;2022-11-20T10:32:47;2.40;99.90
29363;DHT22;16349;53.672;10.014;2022-11-20T10:35:20;2.40;99.90
29363;DHT22;16349;53.672;10.014;2022-11-20T10:37:53;2.40;99.90
29363;DHT22;16349;53.672;10.014;2022-11-20T10:40:27;2.40;99.90
29363;DHT22;16349;53.672;10.014;2022-11-20T10:42:56;2.40;99.90
29363;DHT22;16349;53.672;10.014;2022-11-20T10:45:42;2.30;99.90
29363;DHT22;16349;53.672;10.014;2022-11-20T10:48:16;2.30;99.90
29363;DHT22;16349;53.672;10.014;2022-11-20T10:50:53;2.30;99.90
29363;DHT22;16349;53.672;10.014;2022-11-20T10:53:38;2.40;99.90
29363;DHT22;16349;53.672;10.014;2022-11-20T10:56:11;2.40;99.90
29363;DHT22;16349;53.672;10.014;2022-11-20T10:58:50;2.40;99.90
29363;DHT22;16349;53.672;10.014;2022-11-20T11:01:20;2.40;99.90
29363;DHT22;16349;53.672;10.014;2022-11-20T11:03:51;2.40;99.90
29363;DHT22;16349;53.672;10.014;2022-11-20T11:06:23;2.40;99.90
29363;DHT22;16349;53.672;10.014;2022-11-20T11:08:57;2.30;99.90
29363;DHT22;16349;53.672;10.014;2022-11-20T11:11:28;2.30;99.90
29363;DHT22;16349;53.672;10.014;2022-11-20T11:14:04;2.40;99.90
29363;DHT22;16349;53.672;10.014;2022-11-20T11:16:31;2.40;99.90
29363;DHT22;16349;53.672;10.014;2022-11-20T11:19:12;2.40;99.90
29363;DHT22;16349;53.672;10.014;2022-11-20T11:21:46;2.50;99.90
29363;DHT22;16349;53.672;10.014;2022-11-20T11:24:20;2.60;99.90
29363;DHT22;16349;53.672;10.014;2022-11-20T11:26:52;2.60;99.90
29363;DHT22;16349;53.672;10.014;2022-11-20T11:29:20;2.60;99.90
29363;DHT22;16349;53.672;10.014;2022-11-20T11:31:46;2.60;99.90
29363;DHT22;16349;53.672;10.014;2022-11-20T11:34:16;2.60;99.90
29363;DHT22;16349;53.672;10.014;2022-11-20T11:36:57;2.60;99.90
29363;DHT22;16349;53.672;10.014;2022-11-20T11:39:26;2.70;99.90
29363;DHT22;16349;53.672;10.014;2022-11-20T11:41:53;2.60;99.90
29363;DHT22;16349;53.672;10.014;2022-11-20T11:44:24;2.60;99.90
29363;DHT22;16349;53.672;10.014;2022-11-20T11:47:17;2.70;99.90
29363;DHT22;16349;53.672;10.014;2022-11-20T11:50:00;2.70;99.90
29363;DHT22;16349;53.672;10.014;2022-11-20T11:52:27;2.70;99.90
29363;DHT22;16349;53.672;10.014;2022-11-20T11:54:58;2.80;99.90
29363;DHT22;16349;53.672;10.014;2022-11-20T11:57:32;2.80;99.90
29363;DHT22;16349;53.672;10.014;2022-11-20T12:00:05;2.90;99.90
29363;DHT22;16349;53.672;10.014;2022-11-20T12:02:36;2.90;99.90
29363;DHT22;16349;53.672;10.014;2022-11-20T12:05:14;2.90;99.90
29363;DHT22;16349;53.672;10.014;2022-11-20T12:07:46;2.90;99.90
29363;DHT22;16349;53.672;10.014;2022-11-20T12:10:21;2.90;99.90
29363;DHT22;16349;53.672;10.014;2022-11-20T12:12:52;3.00;99.90
29363;DHT22;16349;53.672;10.014;2022-11-20T12:15:32;2.90;99.90
29363;DHT22;16349;53.672;10.014;2022-11-20T12:18:00;3.00;99.90
29363;DHT22;16349;53.672;10.014;2022-11-20T12:20:34;3.00;99.90
29363;DHT22;16349;53.672;10.014;2022-11-20T12:23:07;3.00;99.90
29363;DHT22;16349;53.672;10.014;2022-11-20T12:25:36;3.00;99.90
29363;DHT22;16349;53.672;10.014;2022-11-20T12:28:23;3.00;99.90
29363;DHT22;16349;53.672;10.014;2022-11-20T12:33:59;3.10;99.90
29363;DHT22;16349;53.672;10.014;2022-11-20T12:36:37;3.20;99.90
29363;DHT22;16349;53.672;10.014;2022-11-20T12:42:17;3.20;99.90
29363;DHT22;16349;53.672;10.014;2022-11-20T12:45:36;3.20;99.90
29363;DHT22;16349;53.672;10.014;2022-11-20T12:51:26;3.20;99.90
29363;DHT22;16349;53.672;10.014;2022-11-20T12:54:16;3.20;99.90
29363;DHT22;16349;53.672;10.014;2022-11-20T12:56:52;3.20;99.90
29363;DHT22;16349;53.672;10.014;2022-11-20T12:59:39;3.20;99.90
29363;DHT22;16349;53.672;10.014;2022-11-20T13:02:23;3.10;99.90
29363;DHT22;16349;53.672;10.014;2022-11-20T13:05:15;3.10;99.90
29363;DHT22;16349;53.672;10.014;2022-11-20T13:07:45;3.10;99.90
29363;DHT22;16349;53.672;10.014;2022-11-20T13:10:20;3.20;99.90
29363;DHT22;16349;53.672;10.014;2022-11-20T13:12:52;3.20;99.90
29363;DHT22;16349;53.672;10.014;2022-11-20T13:15:31;3.20;99.90
29363;DHT22;16349;53.672;10.014;2022-11-20T13:18:02;3.20;99.90
29363;DHT22;16349;53.672;10.014;2022-11-20T13:20:30;3.20;99.90
29363;DHT22;16349;53.672;10.014;2022-11-20T13:22:58;3.20;99.90
29363;DHT22;16349;53.672;10.014;2022-11-20T13:25:28;3.20;99.90
29363;DHT22;16349;53.672;10.014;2022-11-20T13:27:57;3.20;99.90
29363;DHT22;16349;53.672;10.014;2022-11-20T13:30:26;3.30;99.90
29363;DHT22;16349;53.672;10.014;2022-11-20T13:32:55;3.30;99.90
29363;DHT22;16349;53.672;10.014;2022-11-20T13:35:35;3.20;99.90
29363;DHT22;16349;53.672;10.014;2022-11-20T13:38:05;3.20;99.90
29363;DHT22;16349;53.672;10.014;2022-11-20T13:40:36;3.10;99.90
29363;DHT22;16349;53.672;10.014;2022-11-20T13:43:21;3.20;99.90
29363;DHT22;16349;53.672;10.014;2022-11-20T13:45:57;3.20;99.90
29363;DHT22;16349;53.672;10.014;2022-11-20T13:48:26;3.20;99.90
29363;DHT22;16349;53.672;10.014;2022-11-20T13:51:26;3.20;99.90
29363;DHT22;16349;53.672;10.014;2022-11-20T13:54:22;3.20;99.90
29363;DHT22;16349;53.672;10.014;2022-11-20T13:57:02;3.20;99.90
29363;DHT22;16349;53.672;10.014;2022-11-20T13:59:43;3.20;99.90
29363;DHT22;16349;53.672;10.014;2022-11-20T14:02:16;3.30;99.90
29363;DHT22;16349;53.672;10.014;2022-11-20T14:04:47;3.20;99.90
29363;DHT22;16349;53.672;10.014;2022-11-20T14:07:15;3.20;99.90
29363;DHT22;16349;53.672;10.014;2022-11-20T14:09:50;3.20;99.90
29363;DHT22;16349;53.672;10.014;2022-11-20T14:12:21;3.20;99.90
29363;DHT22;16349;53.672;10.014;2022-11-20T14:14:50;3.30;99.90
29363;DHT22;16349;53.672;10.014;2022-11-20T14:17:19;3.30;99.90
29363;DHT22;16349;53.672;10.014;2022-11-20T14:19:47;3.30;99.90
29363;DHT22;16349;53.672;10.014;2022-11-20T14:22:20;3.30;99.90
29363;DHT22;16349;53.672;10.014;2022-11-20T14:24:48;3.20;99.90
29363;DHT22;16349;53.672;10.014;2022-11-20T14:27:17;3.20;99.90
29363;DHT22;16349;53.672;10.014;2022-11-20T14:29:47;3.20;99.90
29363;DHT22;16349;53.672;10.014;2022-11-20T14:32:16;3.10;99.90
29363;DHT22;16349;53.672;10.014;2022-11-20T14:34:45;3.10;99.90
29363;DHT22;16349;53.672;10.014;2022-11-20T14:37:18;3.10;99.90
29363;DHT22;16349;53.672;10.014;2022-11-20T14:39:49;3.10;99.90
29363;DHT22;16349;53.672;10.014;2022-11-20T14:42:18;3.10;99.90
29363;DHT22;16349;53.672;10.014;2022-11-20T14:44:47;3.10;99.90
29363;DHT22;16349;53.672;10.014;2022-11-20T14:47:18;3.20;99.90
29363;DHT22;16349;53.672;10.014;2022-11-20T14:49:46;3.20;99.90
29363;DHT22;16349;53.672;10.014;2022-11-20T14:52:15;3.20;99.90
29363;DHT22;16349;53.672;10.014;2022-11-20T14:54:46;3.20;99.90
29363;DHT22;16349;53.672;10.014;2022-11-20T14:57:22;3.20;99.90
29363;DHT22;16349;53.672;10.014;2022-11-20T14:59:51;3.20;99.90
29363;DHT22;16349;53.672;10.014;2022-11-20T15:02:18;3.20;99.90
29363;DHT22;16349;53.672;10.014;2022-11-20T15:04:46;3.10;99.90
29363;DHT22;16349;53.672;10.014;2022-11-20T15:07:23;3.10;99.90
29363;DHT22;16349;53.672;10.014;2022-11-20T15:10:00;3.10;99.90
29363;DHT22;16349;53.672;10.014;2022-11-20T15:12:27;3.10;99.90
29363;DHT22;16349;53.672;10.014;2022-11-20T15:14:55;3.10;99.90
29363;DHT22;16349;53.672;10.014;2022-11-20T15:17:22;3.10;99.90
29363;DHT22;16349;53.672;10.014;2022-11-20T15:19:50;3.10;99.90
29363;DHT22;16349;53.672;10.014;2022-11-20T15:22:17;3.10;99.90
29363;DHT22;16349;53.672;10.014;2022-11-20T15:24:44;3.10;99.90
29363;DHT22;16349;53.672;10.014;2022-11-20T15:27:11;3.10;99.90
29363;DHT22;16349;53.672;10.014;2022-11-20T15:29:38;3.10;99.90
29363;DHT22;16349;53.672;10.014;2022-11-20T15:32:07;3.10;99.90
29363;DHT22;16349;53.672;10.014;2022-11-20T15:34:34;3.00;99.90
29363;DHT22;16349;53.672;10.014;2022-11-20T15:37:01;3.10;99.90
29363;DHT22;16349;53.672;10.014;2022-11-20T15:39:28;3.00;99.90
29363;DHT22;16349;53.672;10.014;2022-11-20T15:41:55;3.00;99.90
29363;DHT22;16349;53.672;10.014;2022-11-20T15:44:22;3.00;99.90
29363;DHT22;16349;53.672;10.014;2022-11-20T15:46:48;3.10;99.90
29363;DHT22;16349;53.672;10.014;2022-11-20T15:49:17;3.00;99.90
29363;DHT22;16349;53.672;10.014;2022-11-20T15:51:49;3.00;99.90
29363;DHT22;16349;53.672;10.014;2022-11-20T15:54:19;3.00;99.90
29363;DHT22;16349;53.672;10.014;2022-11-20T15:56:47;3.00;99.90
29363;DHT22;16349;53.672;10.014;2022-11-20T15:59:13;2.90;99.90